Time;durP1;ratioP1;P1;durP2;ratioP2;P2;SDS_P1;SDS_P2;PMS_P1;PMS_P2;Temp;Humidity;BMP_temperature;BMP_pressure;BME280_temperature;BME280_humidity;BME280_pressure;Samples;Min_cycle;Max_cycle;Signal;HPM_P1;HPM_P2
2022/01/05 00:00:33;;;;;;;10.97;2.47;;;;;;;3.43;76.69;100017.53;5045311;28;20534;-87
2022/01/05 00:02:58;;;;;;;12.07;2.40;;;;;;;3.40;76.64;100015.03;5045029;28;20028;-87
2022/01/05 00:05:23;;;;;;;11.57;2.40;;;;;;;3.36;76.95;100021.06;5045524;28;20041;-88
2022/01/05 00:07:49;;;;;;;10.83;2.20;;;;;;;3.36;76.37;100021.06;5045438;28;20535;-86
2022/01/05 00:10:14;;;;;;;12.67;2.40;;;;;;;3.28;75.79;100030.53;5044238;28;20024;-87
2022/01/05 00:12:40;;;;;;;11.03;2.33;;;;;;;3.22;75.91;100038.31;5044871;28;20033;-87
2022/01/05 00:15:05;;;;;;;13.60;2.20;;;;;;;3.15;75.60;100025.50;5044961;28;20051;-86
2022/01/05 00:17:31;;;;;;;10.97;2.20;;;;;;;3.12;75.66;100022.97;5045178;28;20032;-86
2022/01/05 00:19:56;;;;;;;10.63;2.23;;;;;;;3.08;76.14;100026.41;5045120;28;20491;-86
2022/01/05 00:22:22;;;;;;;13.00;2.40;;;;;;;3.06;76.23;100028.19;5044118;28;20056;-88
2022/01/05 00:24:47;;;;;;;13.13;2.30;;;;;;;3.02;75.89;100018.78;5044336;28;20078;-88
2022/01/05 00:27:13;;;;;;;11.30;2.07;;;;;;;3.00;75.73;100021.34;5046283;28;20075;-87
2022/01/05 00:29:38;;;;;;;11.93;2.20;;;;;;;2.98;75.92;100030.81;5050269;28;20060;-87
2022/01/05 00:32:05;;;;;;;11.37;2.00;;;;;;;2.95;75.80;100028.25;5035610;28;20086;-87
2022/01/05 00:34:30;;;;;;;12.27;2.20;;;;;;;2.94;75.78;100029.13;5050280;28;20029;-87
2022/01/05 00:36:56;;;;;;;14.57;2.30;;;;;;;2.91;75.49;100034.28;5050808;28;20120;-87
2022/01/05 00:39:21;;;;;;;12.23;2.37;;;;;;;2.88;75.66;100034.28;5050395;28;20074;-87
2022/01/05 00:41:47;;;;;;;9.43;1.90;;;;;;;2.83;75.06;100036.91;5050029;28;20052;-87
2022/01/05 00:44:12;;;;;;;12.77;2.30;;;;;;;2.82;75.04;100037.75;5050086;28;20142;-87
2022/01/05 00:46:38;;;;;;;10.80;1.80;;;;;;;2.77;74.87;100041.22;5051534;28;20475;-87
2022/01/05 00:49:03;;;;;;;10.97;2.17;;;;;;;2.73;74.92;100051.50;5050518;28;20061;-87
2022/01/05 00:51:28;;;;;;;13.40;2.90;;;;;;;2.71;74.29;100052.41;5050604;28;20029;-87
2022/01/05 00:53:54;;;;;;;14.30;2.70;;;;;;;2.65;75.20;100052.44;5050888;28;20025;-87
2022/01/05 00:56:19;;;;;;;11.93;2.17;;;;;;;2.65;74.96;100057.56;5050046;28;20111;-87
2022/01/05 00:58:44;;;;;;;16.43;2.60;;;;;;;2.64;74.41;100061.00;5053436;28;20056;-87
2022/01/05 01:01:10;;;;;;;9.50;2.27;;;;;;;2.62;74.64;100057.56;5053441;28;20419;-87
2022/01/05 01:03:36;;;;;;;12.30;2.10;;;;;;;2.60;74.31;100061.84;5053571;28;20029;-87
2022/01/05 01:06:02;;;;;;;11.53;2.23;;;;;;;2.57;74.25;100071.28;5054913;28;20029;-87
2022/01/05 01:08:27;;;;;;;10.97;2.53;;;;;;;2.54;73.96;100066.19;5053754;28;20029;-87
2022/01/05 01:10:53;;;;;;;12.93;2.03;;;;;;;2.55;73.92;100069.59;5053358;28;20463;-87
2022/01/05 01:13:19;;;;;;;13.23;2.63;;;;;;;2.54;74.15;100067.88;5053204;28;20028;-87
2022/01/05 01:15:49;;;;;;;14.33;2.50;;;;;;;2.50;74.36;100067.06;5053640;28;20028;-87
2022/01/05 01:18:15;;;;;;;13.10;2.57;;;;;;;2.51;74.51;100073.91;5055270;28;21434;-87
2022/01/05 01:20:40;;;;;;;11.93;2.27;;;;;;;2.50;74.56;100069.63;5054298;28;20033;-87
2022/01/05 01:23:06;;;;;;;9.27;2.43;;;;;;;2.46;74.14;100069.66;5053827;28;20032;-87
2022/01/05 01:25:31;;;;;;;13.80;2.63;;;;;;;2.44;74.58;100067.06;5053365;28;20087;-87
2022/01/05 01:27:57;;;;;;;14.33;2.40;;;;;;;2.47;74.49;100067.06;5055866;28;20025;-86
2022/01/05 01:30:22;;;;;;;12.63;2.30;;;;;;;2.45;73.88;100066.22;5055470;28;20503;-87
2022/01/05 01:32:47;;;;;;;8.90;2.13;;;;;;;2.42;74.00;100073.94;5053160;28;20119;-87
2022/01/05 01:35:13;;;;;;;10.70;2.30;;;;;;;2.38;74.09;100067.13;5052877;28;20040;-87
2022/01/05 01:37:38;;;;;;;12.57;2.50;;;;;;;2.33;74.20;100073.97;5053961;28;20107;-87
2022/01/05 01:40:07;;;;;;;11.27;2.10;;;;;;;2.31;74.34;100084.25;5052866;28;20476;-87
2022/01/05 01:42:32;;;;;;;9.87;2.60;;;;;;;2.30;74.38;100089.38;5053630;28;20130;-87
2022/01/05 01:44:58;;;;;;;12.87;2.30;;;;;;;2.24;74.10;100078.28;5054284;28;20345;-87
2022/01/05 01:47:23;;;;;;;13.87;2.50;;;;;;;2.25;74.34;100080.00;5053294;28;20032;-87
2022/01/05 01:49:48;;;;;;;10.23;2.43;;;;;;;2.24;74.29;100088.53;5052922;28;20028;-87
2022/01/05 01:52:14;;;;;;;11.40;2.50;;;;;;;2.25;73.98;100085.13;5053594;28;20025;-87
2022/01/05 01:54:39;;;;;;;13.53;2.90;;;;;;;2.22;74.29;100085.13;5053517;28;20028;-87
2022/01/05 01:57:06;;;;;;;11.20;2.13;;;;;;;2.20;74.60;100086.00;5053491;28;20033;-86
2022/01/05 01:59:31;;;;;;;13.53;2.53;;;;;;;2.16;74.17;100074.91;5053219;28;20108;-87
2022/01/05 02:01:57;;;;;;;9.60;2.50;;;;;;;2.13;74.55;100075.75;5052359;28;20056;-87
2022/01/05 02:04:22;;;;;;;12.23;2.60;;;;;;;2.13;74.06;100075.75;5053218;28;20040;-87
2022/01/05 02:06:48;;;;;;;12.53;2.70;;;;;;;2.09;74.08;100078.34;5053169;28;20419;-87
2022/01/05 02:09:13;;;;;;;10.40;2.80;;;;;;;2.04;74.40;100080.09;5051675;28;20395;-87
2022/01/05 02:11:39;;;;;;;10.83;2.53;;;;;;;2.01;74.49;100074.97;5052378;28;20036;-87
2022/01/05 02:14:05;;;;;;;12.47;2.73;;;;;;;1.99;74.40;100074.94;5052768;28;20111;-87
2022/01/05 02:16:32;;;;;;;14.13;3.07;;;;;;;1.96;74.37;100075.81;5052521;28;20036;-87
2022/01/05 02:18:58;;;;;;;11.10;2.83;;;;;;;1.91;74.26;100077.53;5051556;28;20549;-87
2022/01/05 02:21:25;;;;;;;14.17;2.57;;;;;;;1.89;74.42;100074.13;5052231;28;20448;-87
2022/01/05 02:23:50;;;;;;;14.60;2.90;;;;;;;1.88;74.41;100072.41;5051431;28;20029;-87
2022/01/05 02:26:16;;;;;;;14.77;2.67;;;;;;;1.85;74.19;100075.00;5052441;28;20083;-87
2022/01/05 02:28:42;;;;;;;12.13;2.43;;;;;;;1.84;74.53;100078.41;5052436;28;20094;-88
2022/01/05 02:31:08;;;;;;;12.53;2.60;;;;;;;1.83;74.27;100079.28;5052586;28;20044;-87
2022/01/05 02:33:33;;;;;;;10.10;2.37;;;;;;;1.81;74.35;100089.53;5052657;28;20036;-86
2022/01/05 02:35:59;;;;;;;12.17;2.70;;;;;;;1.80;73.91;100092.94;5052993;28;20108;-87
2022/01/05 02:38:24;;;;;;;11.67;2.57;;;;;;;1.80;74.10;100098.06;5052359;28;20032;-87
2022/01/05 02:40:50;;;;;;;13.97;2.77;;;;;;;1.77;73.87;100092.97;5052047;28;20035;-87
2022/01/05 02:43:16;;;;;;;15.07;2.53;;;;;;;1.77;73.48;100094.66;5051569;28;20357;-87
2022/01/05 02:45:41;;;;;;;10.93;2.50;;;;;;;1.74;73.71;100098.09;5052067;28;20494;-87
2022/01/05 02:48:07;;;;;;;17.50;2.93;;;;;;;1.74;73.56;100099.78;5053056;28;20031;-87
2022/01/05 02:50:32;;;;;;;13.37;2.60;;;;;;;1.72;73.61;100106.63;5052261;28;20063;-87
2022/01/05 02:52:58;;;;;;;14.23;2.70;;;;;;;1.70;73.71;100103.25;5051258;28;20025;-87
2022/01/05 02:55:23;;;;;;;9.43;2.33;;;;;;;1.69;73.59;100107.50;5052002;28;20029;-87
2022/01/05 02:57:48;;;;;;;10.67;2.60;;;;;;;1.69;73.47;100114.34;5052645;28;20029;-86
2022/01/05 03:00:16;;;;;;;12.37;2.40;;;;;;;1.65;73.59;100114.34;5052228;28;20029;-87
2022/01/05 03:02:41;;;;;;;11.37;2.43;;;;;;;1.65;73.42;100124.59;5035905;28;20029;-87
2022/01/05 03:05:08;;;;;;;11.43;2.50;;;;;;;1.63;73.61;100120.31;5051284;28;20032;-87
2022/01/05 03:07:38;;;;;;;14.63;2.73;;;;;;;1.60;73.59;100118.63;5052481;28;20033;-87
2022/01/05 03:10:04;;;;;;;12.60;2.50;;;;;;;1.60;73.56;100131.44;5051114;28;20035;-87
2022/01/05 03:12:29;;;;;;;14.47;2.47;;;;;;;1.58;73.73;100135.72;5051951;28;20033;-87
2022/01/05 03:14:54;;;;;;;13.57;2.40;;;;;;;1.56;73.54;100134.84;5051201;28;20523;-87
2022/01/05 03:17:20;;;;;;;13.57;2.20;;;;;;;1.55;73.63;100133.13;5051328;28;20032;-87
2022/01/05 03:19:45;;;;;;;14.00;2.40;;;;;;;1.54;73.33;100139.13;5051770;28;20341;-87
2022/01/05 03:22:10;;;;;;;14.07;2.60;;;;;;;1.52;73.82;100138.28;5051421;28;20037;-87
2022/01/05 03:24:36;;;;;;;16.87;2.50;;;;;;;1.51;73.33;100144.28;5051638;28;20036;-87
2022/01/05 03:27:01;;;;;;;15.83;2.50;;;;;;;1.50;73.34;100145.97;5051111;28;20052;-87
2022/01/05 03:29:26;;;;;;;10.27;2.60;;;;;;;1.49;73.34;100143.41;5052348;28;20468;-87
2022/01/05 03:31:52;;;;;;;12.87;2.43;;;;;;;1.49;73.32;100151.09;5050983;28;20035;-87
2022/01/05 03:34:19;;;;;;;11.80;2.50;;;;;;;1.47;73.35;100152.81;5051352;28;20044;-87
2022/01/05 03:36:45;;;;;;;13.70;2.77;;;;;;;1.46;73.24;100149.38;5051079;28;20476;-87
2022/01/05 03:39:11;;;;;;;13.23;2.50;;;;;;;1.48;72.47;100152.78;5051536;28;20083;-87
2022/01/05 03:41:36;;;;;;;13.00;2.10;;;;;;;1.47;72.34;100165.63;5050422;28;20140;-87
2022/01/05 03:44:02;;;;;;;13.13;2.70;;;;;;;1.45;72.77;100152.78;5050988;28;20095;-87
2022/01/05 03:46:27;;;;;;;15.63;2.30;;;;;;;1.46;72.68;100163.91;5051167;28;20031;-87
2022/01/05 03:48:53;;;;;;;11.40;2.90;;;;;;;1.47;72.82;100160.50;5051628;28;20066;-87
2022/01/05 03:51:18;;;;;;;14.63;2.57;;;;;;;1.45;73.21;100162.19;5051093;28;20029;-87
2022/01/05 03:53:44;;;;;;;13.33;2.43;;;;;;;1.47;72.68;100163.91;5051039;28;20035;-87
2022/01/05 03:56:09;;;;;;;15.87;2.87;;;;;;;1.49;72.43;100169.03;5050733;28;20077;-87
2022/01/05 03:58:34;;;;;;;14.03;2.27;;;;;;;1.52;72.49;100163.94;5051287;28;20017;-87
2022/01/05 04:01:00;;;;;;;12.30;2.30;;;;;;;1.54;72.68;100172.44;5050232;28;20103;-87
2022/01/05 04:03:25;;;;;;;16.60;2.67;;;;;;;1.54;73.08;100169.88;5050858;28;20029;-87
2022/01/05 04:05:51;;;;;;;16.67;2.50;;;;;;;1.53;73.02;100165.63;5051357;28;20029;-86
2022/01/05 04:08:16;;;;;;;14.53;2.73;;;;;;;1.54;73.45;100172.44;5052186;28;20025;-87
2022/01/05 04:10:41;;;;;;;14.90;2.90;;;;;;;1.51;73.19;100173.31;5050270;28;20075;-86
2022/01/05 04:13:07;;;;;;;15.10;2.53;;;;;;;1.50;73.47;100170.75;5050477;28;20471;-87
2022/01/05 04:15:33;;;;;;;17.27;2.63;;;;;;;1.48;73.67;100182.72;5050478;28;20024;-87
2022/01/05 04:17:58;;;;;;;15.50;3.00;;;;;;;1.44;73.77;100175.88;5050757;28;20104;-87
2022/01/05 04:20:24;;;;;;;15.73;2.70;;;;;;;1.43;73.80;100184.41;5050482;28;20450;-87
2022/01/05 04:22:49;;;;;;;17.33;2.67;;;;;;;1.40;73.84;100185.28;5050443;28;20089;-87
2022/01/05 04:25:15;;;;;;;16.57;2.60;;;;;;;1.39;73.67;100182.69;5049722;28;20052;-87
2022/01/05 04:27:41;;;;;;;14.07;2.57;;;;;;;1.35;73.80;100181.84;5051480;28;20098;-87
2022/01/05 04:30:08;;;;;;;15.43;2.57;;;;;;;1.35;73.63;100181.84;5049974;28;20412;-87
2022/01/05 04:32:34;;;;;;;14.50;2.70;;;;;;;1.32;73.75;100182.69;5049852;28;20036;-87
2022/01/05 04:35:00;;;;;;;19.13;2.70;;;;;;;1.30;74.08;100184.41;5049757;28;20040;-87
2022/01/05 04:37:26;;;;;;;17.90;2.47;;;;;;;1.27;74.21;100189.50;5049751;28;20064;-87
2022/01/05 04:39:51;;;;;;;11.27;2.33;;;;;;;1.29;74.12;100189.50;5049636;28;20037;-87
2022/01/05 04:42:16;;;;;;;15.97;2.70;;;;;;;1.28;74.08;100190.38;5049910;28;20025;-86
2022/01/05 04:44:42;;;;;;;18.60;2.97;;;;;;;1.28;73.92;100195.50;5050436;28;20465;-87
2022/01/05 04:47:08;;;;;;;18.67;2.57;;;;;;;1.25;73.97;100201.47;5050166;28;20017;-87
2022/01/05 04:49:33;;;;;;;14.23;2.47;;;;;;;1.25;74.08;100204.03;5050386;28;20108;-87
2022/01/05 04:51:59;;;;;;;14.57;2.70;;;;;;;1.30;74.57;100206.59;5049067;28;20107;-87
2022/01/05 04:54:24;;;;;;;15.83;2.50;;;;;;;1.33;73.85;100210.03;5049734;28;20040;-87
2022/01/05 04:56:49;;;;;;;14.63;2.50;;;;;;;1.36;74.22;100204.91;5050264;28;20029;-87
2022/01/05 04:59:14;;;;;;;14.37;3.00;;;;;;;1.41;74.58;100211.75;5050848;28;20032;-87
2022/01/05 05:01:40;;;;;;;15.60;2.43;;;;;;;1.44;74.18;100201.50;5049785;28;20413;-87
2022/01/05 05:04:05;;;;;;;14.83;2.60;;;;;;;1.47;74.13;100202.34;5050243;28;20037;-87
2022/01/05 05:06:30;;;;;;;19.43;2.80;;;;;;;1.51;74.27;100203.22;5049887;28;20070;-87
2022/01/05 05:08:56;;;;;;;14.80;3.23;;;;;;;1.55;74.48;100202.34;5050685;28;20025;-87
2022/01/05 05:11:21;;;;;;;12.10;2.70;;;;;;;1.56;74.77;100206.63;5050225;28;20033;-86
2022/01/05 05:13:46;;;;;;;16.53;2.90;;;;;;;1.62;73.95;100204.09;5050247;28;20028;-87
2022/01/05 05:16:11;;;;;;;16.10;3.30;;;;;;;1.64;74.20;100204.06;5049362;28;20364;-87
2022/01/05 05:18:37;;;;;;;16.97;2.90;;;;;;;1.66;74.50;100210.94;5049985;28;20094;-87
2022/01/05 05:21:03;;;;;;;12.50;2.63;;;;;;;1.70;74.35;100214.34;5049500;28;20060;-87
2022/01/05 05:23:28;;;;;;;15.33;2.80;;;;;;;1.71;74.54;100216.06;5050365;28;20017;-87
2022/01/05 05:25:54;;;;;;;17.93;2.83;;;;;;;1.74;74.53;100210.94;5050675;28;20488;-87
2022/01/05 05:28:19;;;;;;;14.57;3.10;;;;;;;1.77;74.78;100204.94;5049882;28;20460;-87
2022/01/05 05:30:45;;;;;;;14.90;2.90;;;;;;;1.81;74.20;100202.38;5049679;28;20037;-87
2022/01/05 05:33:10;;;;;;;23.50;3.20;;;;;;;1.84;74.55;100201.53;5049823;28;20032;-87
2022/01/05 05:35:35;;;;;;;21.30;2.90;;;;;;;1.86;74.61;100201.53;5049838;28;20020;-87
2022/01/05 05:38:01;;;;;;;21.50;3.13;;;;;;;1.88;74.89;100208.34;5050070;28;20086;-88
2022/01/05 05:40:27;;;;;;;23.30;3.10;;;;;;;1.91;74.86;100208.34;5050003;28;20464;-87
2022/01/05 05:42:53;;;;;;;20.47;3.27;;;;;;;1.94;74.75;100207.50;5049803;28;20036;-87
2022/01/05 05:45:18;;;;;;;19.20;2.97;;;;;;;1.95;74.57;100202.38;5052189;28;20024;-87
2022/01/05 05:47:43;;;;;;;17.73;2.60;;;;;;;1.97;74.79;100205.78;5053563;28;20103;-87
2022/01/05 05:50:09;;;;;;;16.60;2.90;;;;;;;2.01;74.59;100198.94;5053619;28;20036;-89
2022/01/05 05:52:35;;;;;;;18.23;2.90;;;;;;;2.02;74.72;100212.63;5037807;28;20043;-87
2022/01/05 05:55:00;;;;;;;19.87;2.47;;;;;;;2.05;74.99;100220.34;5053103;28;20468;-87
2022/01/05 05:57:26;;;;;;;18.93;2.87;;;;;;;2.05;74.92;100215.22;5053113;28;20021;-87
2022/01/05 05:59:51;;;;;;;20.07;3.17;;;;;;;2.08;74.62;100218.63;5038397;28;20475;-86
2022/01/05 06:02:16;;;;;;;22.63;3.33;;;;;;;2.09;74.90;100227.16;5051575;28;20051;-87
2022/01/05 06:04:42;;;;;;;15.97;3.17;;;;;;;2.11;75.19;100220.31;5053251;28;20052;-87
2022/01/05 06:07:07;;;;;;;20.17;3.23;;;;;;;2.09;75.10;100216.91;5052881;28;20544;-86
2022/01/05 06:09:32;;;;;;;21.93;3.40;;;;;;;2.11;75.20;100218.63;5052559;28;20079;-87
2022/01/05 06:11:58;;;;;;;17.13;2.60;;;;;;;2.07;75.71;100219.47;5052784;28;20364;-87
2022/01/05 06:14:23;;;;;;;18.43;3.10;;;;;;;2.06;75.23;100222.03;5052703;28;20079;-86
2022/01/05 06:16:48;;;;;;;24.03;3.67;;;;;;;2.00;75.40;100217.75;5052077;28;20024;-87
2022/01/05 06:19:14;;;;;;;19.80;3.23;;;;;;;1.93;75.38;100222.03;5053022;28;20028;-87
2022/01/05 06:21:39;;;;;;;22.73;3.10;;;;;;;1.89;75.88;100225.44;5052708;28;20028;-86
2022/01/05 06:24:04;;;;;;;20.93;3.23;;;;;;;1.87;76.10;100234.00;5053386;28;20037;-87
2022/01/05 06:26:30;;;;;;;17.37;3.07;;;;;;;1.86;75.69;100237.44;5051675;28;20567;-87
2022/01/05 06:28:55;;;;;;;20.63;3.40;;;;;;;1.88;76.14;100243.41;5052632;28;20032;-87
2022/01/05 06:31:20;;;;;;;23.33;3.50;;;;;;;1.90;76.04;100242.56;5053057;28;20480;-86
2022/01/05 06:33:46;;;;;;;19.33;3.30;;;;;;;1.92;76.26;100243.41;5052907;28;20108;-86
2022/01/05 06:36:11;;;;;;;19.70;3.10;;;;;;;1.94;76.64;100251.13;5052377;28;20396;-87
2022/01/05 06:38:36;;;;;;;22.70;3.13;;;;;;;1.97;76.66;100258.78;5051942;28;20499;-87
2022/01/05 06:41:02;;;;;;;27.67;3.57;;;;;;;1.99;76.33;100240.84;5053486;28;20074;-87
2022/01/05 06:43:28;;;;;;;19.53;3.43;;;;;;;1.99;76.29;100251.13;5052120;28;20037;-87
2022/01/05 06:45:53;;;;;;;18.60;3.30;;;;;;;1.98;76.10;100250.25;5052117;28;20032;-87
2022/01/05 06:48:19;;;;;;;22.33;3.53;;;;;;;1.96;76.38;100250.25;5051675;28;20020;-87
2022/01/05 06:50:44;;;;;;;19.43;3.13;;;;;;;1.92;76.43;100245.13;5052794;28;20110;-87
2022/01/05 06:53:09;;;;;;;17.73;3.50;;;;;;;1.91;76.17;100257.09;5052312;28;20029;-87
2022/01/05 06:55:35;;;;;;;18.27;3.33;;;;;;;1.89;76.21;100256.22;5051375;28;20048;-88
2022/01/05 06:58:00;;;;;;;18.60;3.03;;;;;;;1.88;76.57;100259.66;5051662;28;20025;-87
2022/01/05 07:00:26;;;;;;;24.43;3.80;;;;;;;1.87;76.76;100262.22;5051911;28;20029;-86
2022/01/05 07:02:52;;;;;;;20.50;3.37;;;;;;;1.89;76.55;100270.78;5052663;28;20056;-87
2022/01/05 07:05:18;;;;;;;21.67;3.50;;;;;;;1.88;76.61;100285.28;5051860;28;20096;-87
2022/01/05 07:07:43;;;;;;;16.13;3.37;;;;;;;1.88;76.34;100280.16;5051691;28;20064;-86
2022/01/05 07:10:10;;;;;;;20.03;3.53;;;;;;;1.88;77.01;100276.75;5051526;28;20490;-87
2022/01/05 07:12:36;;;;;;;20.10;3.63;;;;;;;1.89;77.19;100286.16;5051892;28;20025;-87
2022/01/05 07:15:03;;;;;;;22.30;3.47;;;;;;;1.89;76.97;100276.75;5051020;28;20511;-87
2022/01/05 07:17:29;;;;;;;20.20;3.03;;;;;;;1.92;76.95;100287.03;5051660;28;20091;-87
2022/01/05 07:19:54;;;;;;;23.23;3.37;;;;;;;1.92;77.13;100281.06;5051297;28;20117;-87
2022/01/05 07:22:19;;;;;;;23.83;4.00;;;;;;;1.93;77.34;100293.88;5050832;28;20033;-87
2022/01/05 07:24:45;;;;;;;24.20;3.93;;;;;;;1.93;77.14;100301.56;5052146;28;20533;-87
2022/01/05 07:27:10;;;;;;;20.67;3.67;;;;;;;1.96;77.07;100298.16;5051505;28;20495;-86
2022/01/05 07:29:35;;;;;;;18.53;3.30;;;;;;;1.96;77.25;100301.56;5051499;28;20060;-87
2022/01/05 07:32:01;;;;;;;21.80;3.70;;;;;;;2.00;77.46;100296.44;5051373;28;20107;-87
2022/01/05 07:34:26;;;;;;;17.90;3.40;;;;;;;2.01;77.36;100293.03;5050846;28;20024;-87
2022/01/05 07:36:51;;;;;;;29.63;3.67;;;;;;;2.03;77.44;100309.28;5051466;28;20095;-88
2022/01/05 07:39:17;;;;;;;19.97;3.23;;;;;;;2.04;77.55;100301.56;5051121;28;20049;-87
2022/01/05 07:41:42;;;;;;;24.87;3.90;;;;;;;2.08;77.71;100304.97;5050572;28;20025;-87
2022/01/05 07:44:08;;;;;;;22.77;4.00;;;;;;;2.08;77.71;100303.28;5050649;28;20491;-87
2022/01/05 07:46:33;;;;;;;23.43;3.90;;;;;;;2.13;77.22;100303.28;5052216;28;20100;-87
2022/01/05 07:48:59;;;;;;;14.70;3.50;;;;;;;2.15;77.05;100299.00;5050793;28;20028;-87
2022/01/05 07:51:24;;;;;;;14.30;3.43;;;;;;;2.14;77.52;100307.56;5051377;28;20032;-87
2022/01/05 07:53:50;;;;;;;15.37;3.50;;;;;;;2.15;77.27;100304.16;5051292;28;20420;-87
2022/01/05 07:56:16;;;;;;;18.20;3.50;;;;;;;2.17;77.33;100311.84;5052450;28;20049;-87
2022/01/05 07:58:41;;;;;;;17.97;3.17;;;;;;;2.16;77.60;100316.13;5051360;28;20507;-87
2022/01/05 08:01:06;;;;;;;17.17;3.87;;;;;;;2.21;77.19;100326.38;5050705;28;20435;-87
2022/01/05 08:03:37;;;;;;;19.97;3.80;;;;;;;2.23;77.73;100325.53;5050984;28;20024;-87
2022/01/05 08:06:04;;;;;;;21.77;3.90;;;;;;;2.28;77.30;100331.53;5051177;28;20056;-87
2022/01/05 08:08:30;;;;;;;18.57;3.37;;;;;;;2.30;76.92;100334.09;5050134;28;20436;-87
2022/01/05 08:10:56;;;;;;;13.87;3.53;;;;;;;2.36;77.39;100339.22;5050961;28;20103;-87
2022/01/05 08:13:24;;;;;;;19.57;3.47;;;;;;;2.39;77.71;100338.38;5050348;28;20099;-87
2022/01/05 08:15:51;;;;;;;21.13;3.37;;;;;;;2.41;77.97;100339.22;5035835;28;20056;-87
2022/01/05 08:18:17;;;;;;;19.80;3.30;;;;;;;2.45;77.50;100338.34;5050576;28;20341;-86
2022/01/05 08:20:43;;;;;;;29.77;3.30;;;;;;;2.49;77.87;100324.66;5050824;28;20489;-87
2022/01/05 08:23:08;;;;;;;20.87;3.13;;;;;;;2.60;77.22;100331.50;5050872;28;20028;-87
2022/01/05 08:25:34;;;;;;;21.23;3.20;;;;;;;2.66;76.98;100326.38;5050604;28;20053;-88
2022/01/05 08:27:59;;;;;;;17.90;2.90;;;;;;;2.71;76.54;100322.91;5051635;28;20031;-87
2022/01/05 08:30:25;;;;;;;19.67;3.10;;;;;;;2.75;76.22;100328.06;5051821;28;20037;-87
2022/01/05 08:32:53;;;;;;;20.73;3.10;;;;;;;2.77;76.02;100329.75;5037046;28;20025;-87
2022/01/05 08:35:20;;;;;;;18.47;3.13;;;;;;;2.82;75.69;100328.03;5050715;28;20128;-87
2022/01/05 08:37:47;;;;;;;16.83;2.67;;;;;;;2.81;75.56;100351.19;5051190;28;20111;-88
2022/01/05 08:40:19;;;;;;;12.13;2.53;;;;;;;2.81;75.98;100341.75;5031703;28;20490;-88
2022/01/05 08:42:44;;;;;;;20.77;3.30;;;;;;;2.84;75.68;100341.75;5050435;28;20118;-88
2022/01/05 08:45:10;;;;;;;16.37;3.40;;;;;;;2.86;75.69;100347.75;5049209;28;20392;-87
2022/01/05 08:47:36;;;;;;;20.67;3.27;;;;;;;2.90;75.66;100358.00;5051379;28;20156;-89
2022/01/05 08:50:03;;;;;;;18.50;2.97;;;;;;;2.90;75.67;100355.44;5049039;28;20032;-88
2022/01/05 08:52:28;;;;;;;19.27;3.00;;;;;;;2.92;76.12;100358.84;5049960;28;20472;-88
2022/01/05 08:54:53;;;;;;;20.00;3.20;;;;;;;2.95;75.85;100358.84;5039574;28;20040;-87
2022/01/05 08:57:19;;;;;;;26.23;3.33;;;;;;;3.03;75.72;100360.53;5043279;28;20029;-87
2022/01/05 08:59:44;;;;;;;22.03;3.30;;;;;;;3.14;75.71;100365.66;5043637;28;20400;-89
2022/01/05 09:02:13;;;;;;;18.57;3.07;;;;;;;3.27;75.05;100363.03;5044125;28;20024;-90
2022/01/05 09:04:39;;;;;;;15.57;2.93;;;;;;;3.36;75.13;100359.56;5024795;28;20029;-87
2022/01/05 09:07:04;;;;;;;16.43;3.00;;;;;;;3.44;74.83;100373.28;5042828;28;20506;-87
2022/01/05 09:09:29;;;;;;;15.90;3.00;;;;;;;3.45;74.77;100367.25;5039789;28;20480;-88
2022/01/05 09:11:54;;;;;;;18.90;3.23;;;;;;;3.47;74.89;100363.81;5042972;28;20039;-87
2022/01/05 09:14:20;;;;;;;14.97;3.07;;;;;;;3.51;74.40;100374.09;5042532;28;20029;-88
2022/01/05 09:16:45;;;;;;;21.97;3.57;;;;;;;3.50;74.44;100373.25;5042468;28;20193;-87
2022/01/05 09:19:10;;;;;;;15.23;3.37;;;;;;;3.52;74.87;100375.81;5043894;28;20032;-87
2022/01/05 09:21:36;;;;;;;13.97;2.87;;;;;;;3.51;75.24;100384.38;5044964;28;20063;-87
2022/01/05 09:24:02;;;;;;;32.30;3.60;;;;;;;3.53;76.12;100369.81;5043540;28;20048;-87
2022/01/05 09:26:27;;;;;;;11.17;2.87;;;;;;;3.53;75.78;100382.66;5044779;28;20083;-88
2022/01/05 09:28:53;;;;;;;13.73;2.90;;;;;;;3.58;76.71;100386.91;5029493;28;20040;-89
2022/01/05 09:31:18;;;;;;;23.90;3.57;;;;;;;3.59;77.12;100387.75;5045952;28;20087;-89
2022/01/05 09:33:43;;;;;;;16.37;3.13;;;;;;;3.60;77.63;100400.63;5046884;28;20036;-87
2022/01/05 09:36:29;;;;;;;19.23;3.00;;;;;;;3.62;77.91;100398.03;5044608;28;20094;-87
2022/01/05 09:41:57;;;;;;;21.47;3.00;;;;;;;3.65;76.74;100408.31;5044763;28;20608;-88
2022/01/05 09:44:34;;;;;;;18.10;3.03;;;;;;;3.67;77.45;100400.63;5045751;28;20120;-90
2022/01/05 09:47:03;;;;;;;32.77;9.37;;;;;;;3.68;77.69;100408.31;5045724;28;20033;-87
2022/01/05 09:49:38;;;;;;;22.40;5.13;;;;;;;3.69;77.26;100415.19;5044608;28;20033;-88
2022/01/05 09:52:06;;;;;;;24.23;7.23;;;;;;;3.68;77.02;100413.47;5046761;28;20048;-88
2022/01/05 09:54:34;;;;;;;17.73;3.87;;;;;;;3.66;77.08;100424.63;5045336;28;20180;-87
2022/01/05 09:57:00;;;;;;;14.47;3.00;;;;;;;3.60;77.28;100413.50;5045247;28;20545;-88
2022/01/05 09:59:25;;;;;;;18.27;2.83;;;;;;;3.59;77.69;100426.34;5046369;28;20036;-87
2022/01/05 10:01:50;;;;;;;19.10;3.60;;;;;;;3.61;77.91;100417.78;5045526;28;20033;-86
2022/01/05 10:04:16;;;;;;;24.90;3.53;;;;;;;3.59;77.98;100414.34;5045927;28;20037;-88
2022/01/05 10:06:42;;;;;;;19.67;3.20;;;;;;;3.59;78.24;100431.50;5045919;28;20079;-88
2022/01/05 10:09:09;;;;;;;18.73;3.57;;;;;;;3.57;78.29;100436.66;5045165;28;20025;-89
2022/01/05 10:11:35;;;;;;;15.27;2.90;;;;;;;3.58;78.13;100432.38;5045170;28;20040;-89
2022/01/05 10:14:01;;;;;;;17.80;2.93;;;;;;;3.59;78.26;100418.63;5046208;28;20036;-88
2022/01/05 10:16:26;;;;;;;17.13;2.80;;;;;;;3.64;78.02;100432.34;5044971;28;20032;-89
2022/01/05 10:18:52;;;;;;;20.10;4.10;;;;;;;3.72;78.24;100428.03;5030801;28;20040;-87
2022/01/05 10:21:17;;;;;;;19.60;3.33;;;;;;;3.75;78.52;100428.03;5046823;28;20510;-87
2022/01/05 10:23:45;;;;;;;25.77;3.87;;;;;;;3.84;77.52;100428.84;5046712;28;20039;-86
2022/01/05 10:26:27;;;;;;;17.00;3.17;;;;;;;3.94;78.16;100443.34;5045817;28;20045;-88
2022/01/05 10:29:13;;;;;;;;;;;;;;;4.01;77.85;100437.31;5047140;28;20048;-86
2022/01/05 10:31:40;;;;;;;18.73;3.37;;;;;;;4.02;77.08;100459.63;5044393;28;19966;-86
2022/01/05 10:34:24;;;;;;;17.43;3.00;;;;;;;4.02;77.16;100457.06;5044172;28;20041;-87
2022/01/05 10:36:51;;;;;;;14.93;3.13;;;;;;;3.98;76.92;100457.94;5030732;28;20480;-89
2022/01/05 10:39:29;;;;;;;20.47;3.03;;;;;;;4.00;76.91;100466.50;5046353;28;20044;-88
2022/01/05 10:41:54;;;;;;;17.00;3.40;;;;;;;4.00;76.67;100463.94;5046221;28;20028;-88
2022/01/05 10:44:23;;;;;;;20.27;3.03;;;;;;;4.03;76.39;100456.19;5046313;28;20086;-87
2022/01/05 10:46:57;;;;;;;21.27;3.37;;;;;;;4.07;76.73;100457.03;5046685;28;20032;-88
2022/01/05 10:49:25;;;;;;;19.00;3.37;;;;;;;4.10;76.32;100470.72;5032812;28;20115;-89
2022/01/05 10:51:50;;;;;;;19.33;3.00;;;;;;;4.15;75.94;100464.72;5046450;28;20078;-88
2022/01/05 10:54:25;;;;;;;14.53;2.80;;;;;;;4.25;75.87;100474.09;5047447;28;20062;-88
2022/01/05 10:56:50;;;;;;;21.67;3.23;;;;;;;4.27;76.06;100468.94;5047658;28;20027;-87
2022/01/05 10:59:28;;;;;;;16.23;3.10;;;;;;;4.33;76.14;100480.06;5046850;28;20059;-87
2022/01/05 11:01:54;;;;;;;18.63;3.23;;;;;;;4.33;75.43;100485.22;5029630;28;20024;-91
2022/01/05 11:04:23;;;;;;;14.17;3.10;;;;;;;4.33;75.67;100510.97;5045681;28;20472;-87
2022/01/05 11:07:02;;;;;;;19.60;3.10;;;;;;;4.37;75.64;100497.22;5044816;28;20028;-86
2022/01/05 11:09:29;;;;;;;18.47;2.97;;;;;;;4.40;75.57;100478.28;5045686;28;20021;-86
2022/01/05 11:11:54;;;;;;;16.00;3.67;;;;;;;4.44;75.30;100489.47;5028721;28;20065;-86
2022/01/05 11:14:31;;;;;;;20.43;3.10;;;;;;;4.54;74.42;100488.53;5044858;28;20063;-87
2022/01/05 11:16:59;;;;;;;21.27;4.50;;;;;;;4.48;74.02;100496.28;5043925;28;20597;-88
2022/01/05 11:19:31;;;;;;;15.17;3.30;;;;;;;4.50;75.19;100490.28;5045004;28;20495;-88
2022/01/05 11:22:12;;;;;;;24.17;4.90;;;;;;;4.50;76.37;100498.00;5045142;28;20020;-88
2022/01/05 11:24:49;;;;;;;20.20;3.03;;;;;;;4.56;75.71;100494.53;5027459;28;20039;-89